Aeroporto :
LOGIN :

Iscrizione | Disclaimer

   EN    FR    IT 

 










Sommario :    VFR   VFR Marginale   IFR   IFR Intensivo   IFR Molto Intensivo
Visibilità : 
Base nubi : 
>= 8 km
>= 3000ft
5 / 8 km
1000 / 3000 ft
1500m / 5 km
500 / 1000 ft
800 / 1500m
200 / 500 ft
< 800m
< 200 ft
Simboli :   Temporali  Nebbia  Neve Forte  Precipitazioni Forti  Vento > 20 kt
SIGMETs :   Varie  Temporali  Ghiacco  Turbolenza  Onda orograficha  Ceneri Vulcaniche







- Altitudine del aeroporto : 295 ft
- Codice IATA : BWE


EDVE - Braunschweig

ULTIMO METAR :
  • 181250Z 13009KT 100V160 CAVOK 29/11 Q1014

METARs OBSOLETI :
  • 181220Z 15009KT 110V200 CAVOK 29/12 Q1015
  • 181150Z 13009KT 080V200 CAVOK 29/11 Q1015
  • 181120Z 13010KT 090V160 CAVOK 28/11 Q1015
  • 181050Z 14010KT 100V190 CAVOK 28/12 Q1015
  • 181020Z 15010KT 110V180 CAVOK 27/12 Q1016

TAF TAF EDVE
Valido dal 18 a 12 ore il 18 a 21 ore UTC


181100Z 1812/1821 15010KT CAVOK
TEMPO 1812/1815 SHRA SCT050CB
BECMG 1815/1817 14005KT
PROB30
TEMPO 1815/1820 22015G35KT -TSRA BKN030CB
BECMG 1819/1821 VRB03KT
Nessun NOTAM noto per questo aeroporto.



MetMap, La meteo Aeronautica in un colpo d'occhio ! - Copyright ORBIFLY Dicembre 2007 - Disclaimer

ORBIFLY MET'MAP TEAM :

Programmazione e sviluppo : Alexandra Zaïnal
Concezione e sviluppo : Baudouin d'Aumeries
Co-Programmazione e sviluppo : Marc-Olivier Méhu
Supporto tecnico e logistico : Manuel Goepfert
Aiuto per la traduzione : Arnaldo La Scala

Contatto : metmap@orbifly.com




FONTI E CREDITI :

   NOAA